• Join FlightAware (Why Join?)
  • Login
  • US Flag 
11:39PM EST


 

Airport Tracker/Info


-or-


 

Live Flight TrackerFlight Track Log ✈ DAL3780 ✈ 29-Oct-2013 ✈ KBNA - KMSP

Flight Track Log - Related Links

Times and Time Zones

All times are in EDT time to prevent confusion due to time zone crossing. See the DAL3780 flight status page for this flight to view local times or setup timezone preferences in your user account.

Time Position Orientation Groundspeed Altitude Reporting Facility
EDT Latitude Longitude Course Direction KTS MPH feet Rate Location/Type
05:34PM 36.1500 -86.6667 360° North 160 184 1,200  Level Nashville TRACON
05:35PM 36.1833 -86.6667 360° North 196 226 2,300 1,680 Climbing Nashville TRACON
05:35PM 36.2094 -86.7172 303° West 222 255 3,700 1,980 Climbing Memphis Center
05:36PM 36.2447 -86.7825 304° West 235 270 5,600 2,400 Climbing Memphis Center
05:37PM 36.2844 -86.8606 302° West 256 295 8,600 2,580 Climbing Memphis Center
05:38PM 36.3306 -86.9489 303° West 274 315 10,800 1,920 Climbing Memphis Center
05:39PM 36.3789 -87.0369 304° West 291 335 12,500 1,680 Climbing Memphis Center
05:40PM 36.4331 -87.1200 309° West 308 354 14,200 1,500 Climbing Memphis Center
05:41PM 36.5058 -87.1892 323° Northwest 313 360 15,500 1,500 Climbing Memphis Center
05:42PM 36.5786 -87.2639 321° Northwest 334 384 17,200 1,440 Climbing Memphis Center
05:43PM 36.6489 -87.3311 323° Northwest 329 379 18,400 1,080 Climbing Memphis Center
05:44PM 36.7153 -87.3983 321° Northwest 338 389 19,400 960 Climbing Memphis Center
05:45PM 36.7878 -87.4708 321° Northwest 338 389 20,400 960 Climbing Memphis Center
05:46PM 36.8625 -87.5461 321° Northwest 338 389 21,400 960 Climbing Memphis Center
05:47PM 36.9392 -87.6211 322° Northwest 344 396 22,400 900 Climbing Memphis Center
05:48PM 37.0158 -87.6992 321° Northwest 344 396 23,200 600 Climbing Memphis Center
05:49PM 37.0925 -87.7744 322° Northwest 349 402 23,700 540 Climbing Memphis Center
05:50PM 37.1756 -87.8631 320° Northwest 359 413 24,300 540 Climbing Memphis Center
05:51PM 37.2564 -87.9439 321° Northwest 364 419 24,800 540 Climbing Memphis Center
05:52PM 37.3369 -88.0247 321° Northwest 364 419 25,400 540 Climbing Memphis Center
05:53PM 37.4156 -88.1086 320° Northwest 364 419 25,900 540 Climbing Memphis Center
05:54PM 37.4983 -88.1925 321° Northwest 364 419 26,500 540 Climbing Memphis Center
05:56PM 37.6344 -88.3322 321° Northwest 375 432 27,500 480 Climbing Kansas City Center
05:57PM 37.7158 -88.4156 321° Northwest 375 432 28,000 480 Climbing Kansas City Center
05:58PM 37.7956 -88.4997 320° Northwest 372 428 28,500 420 Climbing Kansas City Center
05:59PM 37.8769 -88.5836 321° Northwest 374 430 28,900 360 Climbing Kansas City Center
06:00PM 37.9569 -88.6681 320° Northwest 373 429 29,300 420 Climbing Kansas City Center
06:01PM 38.0411 -88.7553 321° Northwest 377 434 29,800 420 Climbing Kansas City Center
06:02PM 38.1222 -88.8397 321° Northwest 378 435 30,200 420 Climbing Kansas City Center
06:03PM 38.2186 -88.9414 320° Northwest 378 435 30,700 420 Climbing Kansas City Center
06:04PM 38.2981 -89.0258 320° Northwest 375 432 31,100 360 Climbing Kansas City Center
06:05PM 38.3828 -89.1164 320° Northwest 373 429 31,500 360 Climbing Kansas City Center
06:06PM 38.4744 -89.1964 326° Northwest 372 428 31,900 240 Climbing Kansas City Center
06:07PM 38.5661 -89.2619 331° Northwest 378 435 32,000  Climbing Kansas City Center
06:08PM 38.6639 -89.3331 330° Northwest 378 435 32,000  Level Kansas City Center
06:09PM 38.7550 -89.4008 330° Northwest 380 437 32,000  Level Kansas City Center
06:11PM 38.8525 -89.4733 330° Northwest 378 435 32,000  Level Kansas City Center
06:12PM 38.9442 -89.5408 330° Northwest 380 437 32,000  Level Kansas City Center
06:13PM 39.0364 -89.6103 330° Northwest 384 442 32,000  Level Kansas City Center
06:14PM 39.1375 -89.6853 330° Northwest 389 448 32,000  Level Kansas City Center
06:15PM 39.2311 -89.7553 330° Northwest 387 445 32,000  Level Kansas City Center
06:16PM 39.3250 -89.8261 330° Northwest 390 449 32,000  Level Kansas City Center
06:17PM 39.4197 -89.8947 331° Northwest 391 450 32,000  Level Kansas City Center
06:18PM 39.5150 -89.9683 329° Northwest 398 458 32,000  Level Kansas City Center
06:19PM 39.6100 -90.0394 330° Northwest 397 457 32,000  Level Kansas City Center
06:20PM 39.7239 -90.1278 329° Northwest 397 457 32,000  Level Kansas City Center
06:21PM 39.8108 -90.1947 329° Northwest 396 456 32,000  Level Kansas City Center
06:22PM 39.9053 -90.2675 329° Northwest 395 455 32,000  Level Kansas City Center
06:23PM 39.9997 -90.3403 329° Northwest 393 452 32,000  Level Kansas City Center
06:24PM 40.0944 -90.4125 330° Northwest 392 451 32,000  Level Kansas City Center
06:25PM 40.2069 -90.4997 329° Northwest 389 448 32,000  Level Kansas City Center
06:26PM 40.2994 -90.5719 329° Northwest 387 445 32,000  Level Kansas City Center
06:27PM 40.3908 -90.6431 329° Northwest 383 441 32,000  Level Kansas City Center
06:28PM 40.4481 -90.6889 329° Northwest 387 445 32,000  Level Chicago Center
06:29PM 40.5425 -90.7614 330° Northwest 390 449 32,000  Level Chicago Center
06:30PM 40.6356 -90.8333 330° Northwest 388 447 32,000  Level Chicago Center
06:31PM 40.7281 -90.9072 329° Northwest 387 445 32,000  Level Chicago Center
06:32PM 40.8217 -90.9808 329° Northwest 389 448 32,000  Level Chicago Center
06:33PM 40.9147 -91.0547 329° Northwest 388 447 32,000  Level Chicago Center
06:34PM 41.0269 -91.1431 329° Northwest 389 448 32,000  Level Chicago Center
06:35PM 41.1194 -91.2172 329° Northwest 388 447 32,000  Level Chicago Center
06:36PM 41.2125 -91.2914 329° Northwest 389 448 32,000  Level Chicago Center
06:37PM 41.2983 -91.3603 329° Northwest 388 447 32,000  Level Chicago Center
06:38PM 41.4072 -91.4494 328° Northwest 385 443 32,000  Level Chicago Center
06:39PM 41.4983 -91.5222 329° Northwest 385 443 32,000  Level Chicago Center
06:40PM 41.5883 -91.5967 328° Northwest 383 441 32,000  Level Chicago Center
06:41PM 41.6794 -91.6689 329° Northwest 384 442 32,000  Level Chicago Center
06:42PM 41.7697 -91.7433 328° Northwest 383 441 32,000  Level Chicago Center
06:43PM 41.8783 -91.8336 328° Northwest 385 443 32,000  Level Chicago Center
06:44PM 41.9697 -91.9081 329° Northwest 385 443 32,000  Level Chicago Center
06:45PM 42.0589 -91.9808 329° Northwest 379 436 32,000  Level Chicago Center
06:46PM 42.1436 -92.0517 328° Northwest 362 417 32,000  Level Chicago Center
06:47PM 42.2244 -92.1192 328° Northwest 346 398 32,000  Level Chicago Center
06:48PM 42.3219 -92.1994 329° Northwest 343 395 32,000  Level Chicago Center
06:49PM 42.4053 -92.2697 328° Northwest 350 403 32,000  Level Chicago Center
06:50PM 42.4878 -92.3403 328° Northwest 351 404 32,000  Level Chicago Center
06:51PM 42.5708 -92.4106 328° Northwest 353 406 32,000  Level Chicago Center
06:52PM 42.6508 -92.4833 326° Northwest 349 402 32,000  Level Chicago Center
06:53PM 42.7325 -92.5589 326° Northwest 354 407 32,000  Level Chicago Center
06:55PM 42.8261 -92.6447 326° Northwest 342 394 32,000  Level Chicago Center
06:56PM 42.9006 -92.7131 326° Northwest 328 377 32,000  Level Chicago Center
06:57PM 42.9706 -92.7783 326° Northwest 310 357 32,000 -420 Level Chicago Center
06:58PM 43.0406 -92.8447 325° Northwest 308 354 31,200 -840 Descending Chicago Center
06:59PM 43.1103 -92.9089 326° Northwest 306 352 30,300 -1,260 Descending Chicago Center
07:00PM 43.1903 -92.9861 325° Northwest 297 342 28,600 -1,500 Descending Chicago Center
07:01PM 43.2589 -93.0489 326° Northwest 298 343 27,200 -780 Descending Chicago Center
07:02PM 43.3242 -93.1097 326° Northwest 290 334 27,000 -120 Descending Chicago Center
07:03PM 43.3894 -93.1708 326° Northwest 287 330 27,000 -600 Level Chicago Center
07:04PM 43.4542 -93.2336 325° Northwest 288 331 25,800 -1,440 Descending Chicago Center
07:05PM 43.5358 -93.2928 332° Northwest 289 333 24,100 -900 Descending Chicago Center
07:06PM 43.6097 -93.2847 North 297 342 24,000 -480 Descending Chicago Center
07:07PM 43.7286 -93.2694 North 299 344 23,000 -1,080 Descending Minneapolis Center
07:08PM 43.8086 -93.2622 North 293 337 21,500 -1,620 Descending Minneapolis Center
07:09PM 43.9031 -93.2539 North 286 329 19,700 -1,860 Descending Minneapolis Center
07:10PM 43.9794 -93.2458 North 279 321 17,700 -1,800 Descending Minneapolis Center
07:11PM 44.0172 -93.1500 61° Northeast 324 373 16,000 -840 Descending Minneapolis Center
07:12PM 43.9533 -93.0994 150° Southeast 282 325 16,000 -60 Level Minneapolis Center
07:13PM 43.9447 -93.1825 262° West 265 305 15,900 -1,020 Descending Minneapolis Center
07:14PM 44.0103 -93.2592 320° Northwest 295 339 14,000 -1,860 Descending Minneapolis Center
07:16PM 44.0875 -93.3328 326° Northwest 298 343 12,100 -1,740 Descending Minneapolis Center
07:17PM 44.1603 -93.2725 31° Northeast 307 353 10,500 -1,020 Descending Minneapolis Center
07:18PM 44.2372 -93.2256 24° Northeast 303 349 10,000 -300 Descending Minneapolis Center
07:19PM 44.3125 -93.2158 North 267 307 10,000  Level Minneapolis Center
07:20PM 44.3825 -93.2067 North 256 295 10,000  Level Minneapolis Center
07:21PM 44.4522 -93.1997 North 252 290 10,000  Level Minneapolis Center
07:22PM 44.5339 -93.1917 North 247 284 10,000  Level Minneapolis Center
07:23PM 44.6042 -93.1844 North 253 291 10,000  Level Minneapolis Center
07:24PM 44.6719 -93.1808 North 247 284 10,000 -180 Level Minneapolis Center
07:25PM 44.7383 -93.1744 North 246 283 9,700 -480 Descending Minneapolis Center
07:26PM 44.7897 -93.2314 322° Northwest 232 267 9,000 -480 Descending Minneapolis Center
07:27PM 44.8147 -93.3069 295° West 216 249 8,800 -540 Descending Minneapolis Center
07:28PM 44.8378 -93.3764 295° West 199 229 8,000 -420 Descending Minneapolis Center
07:29PM 44.8639 -93.4464 298° West 202 232 8,000  Level Minneapolis Center
07:30PM 44.8958 -93.5311 298° West 204 235 8,000  Level Minneapolis Center
07:31PM 44.9228 -93.6017 298° West 206 237 8,000 -180 Level Minneapolis Center
07:32PM 44.9503 -93.6706 299° West 204 235 7,700 -780 Descending Minneapolis Center
07:33PM 44.9931 -93.7022 332° Northwest 210 242 6,500 -1,080 Descending Minneapolis Center
07:34PM 44.9944 -93.6328 88° East 195 224 5,500 -780 Descending Minneapolis Center
07:35PM 44.9858 -93.5597 99° East 189 217 4,900 -600 Descending Minneapolis Center
07:36PM 44.9692 -93.4778 106° East 181 208 4,300 -600 Descending Minneapolis Center
07:37PM 44.9556 -93.4097 106° East 179 206 3,700 -720 Descending Minneapolis Center
07:38PM 44.9381 -93.3506 113° Southeast 163 188 2,900 -840 Descending Minneapolis Center
07:39PM 44.9164 -93.3014 122° Southeast 149 171 2,000 -720 Descending Minneapolis Center
07:40PM 44.8994 -93.2603 120° Southeast 125 144 1,400 -600 Descending Minneapolis Center
07:42PM 44.8820 -93.2218 42° Northeast  Level Estimated